Time;durP1;ratioP1;P1;durP2;ratioP2;P2;SDS_P1;SDS_P2;PMS_P1;PMS_P2;Temp;Humidity;BMP_temperature;BMP_pressure;BME280_temperature;BME280_humidity;BME280_pressure;Samples;Min_cycle;Max_cycle;Signal;HPM_P1;HPM_P2
2022/03/14 00:02:24;;;;;;;;;6.75;5.50;;;;;7.27;100.00;101562.22;5067718;28;45245;-82
2022/03/14 00:04:50;;;;;;;;;11.00;6.00;;;;;7.30;100.00;101570.06;5064696;28;45233;-82
2022/03/14 00:07:15;;;;;;;;;12.75;9.75;;;;;7.33;100.00;101576.97;5058871;27;44793;-84
2022/03/14 00:09:41;;;;;;;;;7.50;6.25;;;;;7.36;100.00;101583.00;5059246;28;45471;-85
2022/03/14 00:12:08;;;;;;;;;6.00;6.00;;;;;7.39;100.00;101584.66;5060467;28;45017;-83
2022/03/14 00:14:34;;;;;;;;;10.75;7.00;;;;;7.42;100.00;101581.91;5059765;28;45227;-82
2022/03/14 00:17:02;;;;;;;;;7.50;6.00;;;;;7.45;100.00;101585.28;5058910;27;44822;-81
2022/03/14 00:19:29;;;;;;;;;8.25;6.50;;;;;7.48;100.00;101598.38;5058729;28;45522;-82
2022/03/14 00:21:54;;;;;;;;;13.25;7.00;;;;;7.51;100.00;101596.53;5059112;28;44794;-83
2022/03/14 00:24:20;;;;;;;;;9.00;7.00;;;;;7.53;100.00;101594.69;5063699;28;47257;-83
2022/03/14 00:26:45;;;;;;;;;10.50;7.00;;;;;7.55;100.00;101603.44;5071536;28;45236;-81
2022/03/14 00:29:11;;;;;;;;;7.25;7.25;;;;;7.56;100.00;101616.56;5061588;27;44835;-82
2022/03/14 00:31:36;;;;;;;;;6.75;4.00;;;;;7.56;100.00;101621.88;5058604;28;45264;-81
2022/03/14 00:34:02;;;;;;;;;8.25;5.00;;;;;7.60;100.00;101627.91;5058362;28;44920;-81
2022/03/14 00:36:27;;;;;;;;;2.00;2.00;;;;;7.64;100.00;101629.47;5058716;28;45356;-82
2022/03/14 00:38:54;;;;;;;;;7.25;7.00;;;;;7.65;100.00;101640.00;5058334;28;45362;-80
2022/03/14 00:41:19;;;;;;;;;7.75;7.75;;;;;7.65;100.00;101645.28;5058298;28;45423;-81
2022/03/14 00:43:46;;;;;;;;;7.25;6.00;;;;;7.69;100.00;101649.53;5062103;27;46113;-83
2022/03/14 00:46:11;;;;;;;;;11.00;7.40;;;;;7.71;100.00;101652.13;5065628;27;45261;-84
2022/03/14 00:48:37;;;;;;;;;9.00;7.50;;;;;7.72;100.00;101653.84;5064347;28;45359;-83
2022/03/14 00:51:04;;;;;;;;;6.50;6.25;;;;;7.70;100.00;101656.56;5065234;28;44855;-82
2022/03/14 00:53:31;;;;;;;;;7.00;7.00;;;;;7.71;100.00;101649.47;5063186;28;45156;-84
2022/03/14 00:55:58;;;;;;;;;8.25;6.00;;;;;7.71;100.00;101660.91;5063078;28;44844;-84
2022/03/14 00:58:24;;;;;;;;;7.00;6.00;;;;;7.71;100.00;101662.69;5060058;27;45433;-85
2022/03/14 01:00:49;;;;;;;;;8.25;5.25;;;;;7.71;100.00;101676.78;5061713;28;45025;-83
2022/03/14 01:03:15;;;;;;;;;10.50;9.00;;;;;7.71;100.00;101674.13;5067216;28;45058;-84
2022/03/14 01:05:40;;;;;;;;;4.50;4.50;;;;;7.78;100.00;101681.81;5070309;28;44883;-82
2022/03/14 01:08:08;;;;;;;;;5.50;5.50;;;;;7.79;100.00;101684.41;5063794;28;46024;-82
2022/03/14 01:10:34;;;;;;;;;8.50;6.00;;;;;7.78;100.00;101687.09;5058660;28;44864;-81
2022/03/14 01:13:02;;;;;;;;;5.75;4.75;;;;;7.77;100.00;101695.97;5060589;28;45432;-81
2022/03/14 01:15:29;;;;;;;;;9.00;6.25;;;;;7.75;100.00;101695.19;5064775;28;45063;-83
2022/03/14 01:17:55;;;;;;;;;6.00;4.00;;;;;7.73;100.00;101696.06;5061722;27;44745;-83
2022/03/14 01:20:20;;;;;;;;;7.00;5.25;;;;;7.71;100.00;101702.38;5063580;28;44887;-82
2022/03/14 01:22:45;;;;;;;;;5.75;5.75;;;;;7.69;100.00;101706.88;5062277;28;46883;-85
2022/03/14 01:25:11;;;;;;;;;6.50;5.25;;;;;7.69;100.00;101712.16;5067887;28;44828;-83
2022/03/14 01:27:36;;;;;;;;;11.25;6.50;;;;;7.68;100.00;101713.91;5061781;28;45169;-84
2022/03/14 01:30:02;;;;;;;;;7.50;4.00;;;;;7.69;100.00;101718.31;5059641;28;44854;-83
2022/03/14 01:32:27;;;;;;;;;4.50;4.50;;;;;7.69;100.00;101715.66;5058355;28;44986;-82
2022/03/14 01:34:53;;;;;;;;;9.50;5.25;;;;;7.69;100.00;101728.88;5057545;27;44821;-81
2022/03/14 01:37:19;;;;;;;;;2.75;2.25;;;;;7.67;100.00;101729.84;5058772;28;45216;-83
2022/03/14 01:39:45;;;;;;;;;3.00;2.00;;;;;7.65;100.00;101729.06;5058041;28;44842;-81
2022/03/14 01:42:20;;;;;;;;;8.00;4.00;;;;;7.68;100.00;101744.78;5058556;28;45173;-82
2022/03/14 01:44:47;;;;;;;;;5.25;4.00;;;;;7.66;100.00;101736.06;5059193;28;45254;-80
2022/03/14 01:47:14;;;;;;;;;6.50;4.00;;;;;7.66;100.00;101744.84;5058564;28;45312;-81
2022/03/14 01:49:41;;;;;;;;;7.50;4.00;;;;;7.61;100.00;101736.25;5058875;28;45401;-82
2022/03/14 01:52:08;;;;;;;;;6.00;5.50;;;;;7.60;100.00;101736.31;5058978;28;46249;-81
2022/03/14 01:54:34;;;;;;;;;12.00;5.50;;;;;7.59;100.00;101750.44;5064351;28;44803;-81
2022/03/14 01:56:59;;;;;;;;;5.25;4.75;;;;;7.55;100.00;101751.50;5070398;28;44717;-82
2022/03/14 01:59:26;;;;;;;;;4.50;4.50;;;;;7.55;100.00;101748.84;5067629;28;45256;-81
2022/03/14 02:01:51;;;;;;;;;3.25;3.25;;;;;7.50;100.00;101753.44;5066021;28;45505;-81
2022/03/14 02:04:18;;;;;;;;;3.50;3.50;;;;;7.47;100.00;101759.69;5067827;28;44725;-81
2022/03/14 02:06:45;;;;;;;;;5.75;3.75;;;;;7.43;100.00;101756.31;5067645;28;44894;-81
2022/03/14 02:09:11;;;;;;;;;4.00;3.75;;;;;7.37;100.00;101760.97;5064740;28;44895;-82
2022/03/14 02:11:36;;;;;;;;;3.25;3.25;;;;;7.31;100.00;101751.50;5064898;28;45348;-81
2022/03/14 02:14:03;;;;;;;;;5.00;5.00;;;;;7.25;100.00;101758.75;5064228;28;45321;-81
2022/03/14 02:16:29;;;;;;;;;7.25;4.50;;;;;7.15;100.00;101745.88;5058489;28;44712;-82
2022/03/14 02:18:55;;;;;;;;;6.00;6.00;;;;;7.08;100.00;101752.31;5073906;27;45214;-81
2022/03/14 02:21:21;;;;;;;;;5.00;5.00;;;;;7.00;100.00;101750.88;5058179;28;45383;-82
2022/03/14 02:23:46;;;;;;;;;7.50;6.00;;;;;6.91;100.00;101749.41;5058152;28;44792;-81
2022/03/14 02:26:12;;;;;;;;;3.50;3.00;;;;;6.86;100.00;101759.28;5063324;28;45471;-80
2022/03/14 02:28:37;;;;;;;;;5.50;5.50;;;;;6.79;100.00;101765.69;5063074;28;45227;-81
2022/03/14 02:31:03;;;;;;;;;7.00;6.50;;;;;6.70;100.00;101765.09;5057448;28;45155;-82
2022/03/14 02:33:29;;;;;;;;;4.50;4.25;;;;;6.64;100.00;101767.09;5057382;28;45408;-81
2022/03/14 02:35:55;;;;;;;;;7.75;5.75;;;;;6.57;100.00;101768.19;5057279;28;45396;-81
2022/03/14 02:38:20;;;;;;;;;8.75;5.25;;;;;6.54;100.00;101768.31;5055241;28;44928;-83
2022/03/14 02:40:47;;;;;;;;;4.00;4.00;;;;;6.49;100.00;101778.16;5056911;28;45020;-83
2022/03/14 02:43:22;;;;;;;;;6.75;6.50;;;;;6.42;100.00;101777.50;5057487;28;45319;-84
2022/03/14 02:45:48;;;;;;;;;8.75;5.00;;;;;6.37;100.00;101777.63;5057363;28;44805;-84
2022/03/14 02:48:14;;;;;;;;;5.50;5.00;;;;;6.33;100.00;101789.19;5056446;28;45038;-84
2022/03/14 02:50:42;;;;;;;;;6.00;6.00;;;;;6.30;100.00;101799.03;5058115;28;45378;-83
2022/03/14 02:53:09;;;;;;;;;5.50;4.25;;;;;6.25;100.00;101808.84;5061245;28;45215;-84
2022/03/14 02:55:36;;;;;;;;;5.75;5.75;;;;;6.22;100.00;101816.84;5063709;28;45502;-83
2022/03/14 02:58:01;;;;;;;;;4.75;4.75;;;;;6.19;100.00;101820.47;5065288;28;44799;-83
2022/03/14 03:00:27;;;;;;;;;9.50;5.50;;;;;6.17;100.00;101827.56;5061811;28;45294;-81
2022/03/14 03:02:53;;;;;;;;;6.75;5.25;;;;;6.17;100.00;101835.47;5056662;28;45406;-82
2022/03/14 03:05:19;;;;;;;;;5.00;5.00;;;;;6.16;100.00;101834.59;5058463;28;44826;-85
2022/03/14 03:07:48;;;;;;;;;12.25;6.00;;;;;6.17;100.00;101840.75;5063827;28;45267;-81
2022/03/14 03:10:23;;;;;;;;;3.25;3.25;;;;;6.18;100.00;101837.19;5061684;28;46041;-82
2022/03/14 03:12:49;;;;;;;;;4.50;3.50;;;;;6.18;100.00;101848.59;5058264;28;44729;-84
2022/03/14 03:15:15;;;;;;;;;5.50;5.00;;;;;6.18;100.00;101864.44;5058352;28;44780;-84
2022/03/14 03:17:43;;;;;;;;;6.50;5.50;;;;;6.19;100.00;101862.69;5058744;28;44764;-84
2022/03/14 03:20:09;;;;;;;;;3.50;3.50;;;;;6.21;100.00;101876.69;5057896;28;45316;-83
2022/03/14 03:22:35;;;;;;;;;5.75;4.75;;;;;6.21;100.00;101879.31;5058431;28;45200;-83
2022/03/14 03:25:00;;;;;;;;;8.50;4.50;;;;;6.24;100.00;101879.25;5059050;28;44725;-84
2022/03/14 03:27:26;;;;;;;;;4.00;3.25;;;;;6.28;100.00;101885.25;5061070;28;44959;-84
2022/03/14 03:29:51;;;;;;;;;6.00;4.25;;;;;6.29;100.00;101884.38;5062751;27;45381;-84
2022/03/14 03:32:18;;;;;;;;;6.00;3.00;;;;;6.29;100.00;101879.97;5065412;28;45288;-85
2022/03/14 03:34:43;;;;;;;;;4.00;2.00;;;;;6.26;100.00;101879.19;5067346;28;45173;-84
2022/03/14 03:37:09;;;;;;;;;7.00;6.00;;;;;6.26;100.00;101893.22;5070995;28;44923;-84
2022/03/14 03:39:34;;;;;;;;;6.00;6.00;;;;;6.22;100.00;101899.50;5068359;28;45472;-84
2022/03/14 03:42:00;;;;;;;;;5.00;4.00;;;;;6.18;100.00;101908.44;5068252;28;44768;-84
2022/03/14 03:44:25;;;;;;;;;7.50;6.00;;;;;6.15;100.00;101911.19;5067523;28;45063;-84
2022/03/14 03:46:50;;;;;;;;;10.75;4.25;;;;;6.11;100.00;101913.03;5062481;28;44792;-82
2022/03/14 03:49:16;;;;;;;;;4.75;4.75;;;;;6.10;100.00;101910.44;5059136;28;45474;-83
2022/03/14 03:51:41;;;;;;;;;4.00;3.50;;;;;6.07;100.00;101915.81;5059481;28;44795;-84
2022/03/14 03:54:06;;;;;;;;;9.75;6.00;;;;;6.02;100.00;101923.84;5088847;27;44802;-83
2022/03/14 03:56:34;;;;;;;;;10.25;7.75;;;;;6.01;100.00;101921.25;5098552;27;45550;-82
2022/03/14 03:59:00;;;;;;;;;8.75;4.50;;;;;5.97;100.00;101928.38;5099961;27;44991;-80
2022/03/14 04:01:26;;;;;;;;;5.50;4.00;;;;;5.94;100.00;101933.75;5103054;27;45302;-83
2022/03/14 04:03:55;;;;;;;;;6.25;5.00;;;;;5.91;100.00;101939.09;5105782;27;45334;-82
2022/03/14 04:06:31;;;;;;;;;9.25;7.00;;;;;5.87;100.00;101951.50;5104502;27;45661;-82
2022/03/14 04:09:00;;;;;;;;;4.50;4.00;;;;;5.85;100.00;101945.41;5105446;27;45136;-81
2022/03/14 04:11:26;;;;;;;;;5.50;3.25;;;;;5.82;100.00;101963.94;5106010;27;45338;-81
2022/03/14 04:13:53;;;;;;;;;8.00;3.75;;;;;5.80;100.00;101965.75;5104409;27;44830;-80
2022/03/14 04:16:22;;;;;;;;;9.00;4.75;;;;;5.80;100.00;101962.22;5100177;27;44798;-82
2022/03/14 04:18:47;;;;;;;;;5.00;4.25;;;;;5.77;100.00;101954.44;5097861;27;46916;-81
2022/03/14 04:21:15;;;;;;;;;11.00;5.00;;;;;5.78;100.00;101969.34;5099497;27;44791;-80
2022/03/14 04:23:42;;;;;;;;;8.75;5.50;;;;;5.78;100.00;101962.28;5099926;27;45289;-85
2022/03/14 04:26:07;;;;;;;;;7.00;4.25;;;;;5.78;100.00;101966.69;5100401;27;44906;-81
2022/03/14 04:28:36;;;;;;;;;10.00;4.50;;;;;5.79;100.00;101968.41;5099545;27;45464;-81
2022/03/14 04:31:05;;;;;;;;;5.00;5.00;;;;;5.79;100.00;101974.56;5098971;27;45408;-83
2022/03/14 04:33:31;;;;;;;;;5.25;4.00;;;;;5.77;100.00;101973.75;5105771;27;44779;-84
2022/03/14 04:35:57;;;;;;;;;8.00;3.50;;;;;5.79;100.00;101976.34;5112267;27;44726;-83
2022/03/14 04:38:25;;;;;;;;;7.75;4.00;;;;;5.76;100.00;101987.84;5110123;27;45373;-82
2022/03/14 04:40:50;;;;;;;;;7.50;6.00;;;;;5.76;100.00;101998.38;5099784;27;45402;-82
2022/03/14 04:43:15;;;;;;;;;4.25;4.25;;;;;5.75;100.00;102001.03;5099385;27;45167;-83
2022/03/14 04:45:41;;;;;;;;;4.00;4.00;;;;;5.73;100.00;102001.09;5099582;27;45357;-81
2022/03/14 04:48:07;;;;;;;;;9.00;5.00;;;;;5.72;100.00;102004.66;5098961;27;45170;-82
2022/03/14 04:50:35;;;;;;;;;6.00;4.75;;;;;5.73;100.00;102016.06;5100934;27;44770;-84
2022/03/14 04:53:03;;;;;;;;;3.25;3.25;;;;;5.73;100.00;102018.69;5094724;27;45137;-84
2022/03/14 04:55:28;;;;;;;;;6.00;5.00;;;;;5.72;100.00;102019.59;5078143;27;45395;-84
2022/03/14 04:57:54;;;;;;;;;5.25;4.75;;;;;5.69;100.00;102015.25;5079115;27;45239;-85
2022/03/14 05:00:20;;;;;;;;;10.25;7.50;;;;;5.67;100.00;102014.44;5079575;27;44701;-85
2022/03/14 05:02:45;;;;;;;;;10.00;5.75;;;;;5.62;100.00;102018.97;5079351;27;45368;-83
2022/03/14 05:05:11;;;;;;;;;8.00;8.00;;;;;5.58;100.00;102025.22;5081711;27;45464;-83
2022/03/14 05:07:37;;;;;;;;;10.25;6.25;;;;;5.54;100.00;102023.56;5086142;27;45433;-82
2022/03/14 05:10:03;;;;;;;;;10.00;5.75;;;;;5.49;100.00;102023.69;5084637;27;45372;-83
2022/03/14 05:12:32;;;;;;;;;5.00;5.00;;;;;5.47;100.00;102020.22;5092494;27;44811;-83
2022/03/14 05:14:57;;;;;;;;;8.00;5.50;;;;;5.41;100.00;102015.97;5086199;27;44827;-84
2022/03/14 05:17:22;;;;;;;;;11.00;7.50;;;;;5.37;100.00;102035.41;5083156;27;45059;-83
2022/03/14 05:19:48;;;;;;;;;9.25;5.50;;;;;5.35;100.00;102042.47;5087125;27;44695;-83
2022/03/14 05:22:13;;;;;;;;;9.75;6.25;;;;;5.30;100.00;102041.72;5088471;27;44935;-84
2022/03/14 05:24:39;;;;;;;;;9.75;4.75;;;;;5.28;100.00;102042.66;5087363;27;44862;-83
2022/03/14 05:27:04;;;;;;;;;6.50;6.50;;;;;5.27;100.00;102048.81;5085939;28;45310;-82
2022/03/14 05:29:30;;;;;;;;;10.25;7.25;;;;;5.23;100.00;102055.09;5091505;27;44767;-81
2022/03/14 05:31:55;;;;;;;;;8.00;7.75;;;;;5.21;100.00;102054.22;5091343;27;44901;-82
2022/03/14 05:34:21;;;;;;;;;7.25;7.00;;;;;5.20;100.00;102052.50;5092166;27;44837;-82
2022/03/14 05:36:46;;;;;;;;;4.75;4.75;;;;;5.17;100.00;102056.06;5091178;27;45363;-85
2022/03/14 05:39:12;;;;;;;;;12.50;8.00;;;;;5.15;100.00;102057.88;5081559;27;45492;-80
2022/03/14 05:41:37;;;;;;;;;8.00;8.00;;;;;5.11;100.00;102061.47;5079014;27;44761;-81
2022/03/14 05:44:02;;;;;;;;;8.00;7.25;;;;;5.07;100.00;102063.31;5079851;27;45280;-83
2022/03/14 05:46:28;;;;;;;;;11.67;8.67;;;;;5.06;100.00;102079.16;5086142;28;45235;-83
2022/03/14 05:48:53;;;;;;;;;10.00;8.67;;;;;5.03;100.00;102080.09;5081909;27;45191;-79
2022/03/14 05:51:19;;;;;;;;;4.33;4.00;;;;;5.03;100.00;102073.94;5077188;27;44775;-81
2022/03/14 05:53:44;;;;;;;;;5.25;5.25;;;;;5.01;100.00;102075.75;5078194;27;45166;-81
2022/03/14 05:56:09;;;;;;;;;15.50;8.50;;;;;5.00;100.00;102077.53;5077209;27;47788;-81
2022/03/14 05:58:35;;;;;;;;;8.00;8.00;;;;;5.01;100.00;102088.94;5078598;27;44849;-82
2022/03/14 06:01:00;;;;;;;;;9.67;6.00;;;;;4.99;100.00;102088.13;5078013;27;45301;-82
2022/03/14 06:03:26;;;;;;;;;11.00;9.67;;;;;4.99;100.00;102094.25;5077757;27;45466;-82
2022/03/14 06:05:51;;;;;;;;;13.00;13.00;;;;;4.97;100.00;102101.28;5076750;27;46842;-82
2022/03/14 06:08:18;;;;;;;;;13.00;9.67;;;;;4.97;100.00;102093.38;5077564;28;45335;-84
2022/03/14 06:10:46;;;;;;;;;12.00;9.00;;;;;4.99;100.00;102091.59;5081333;27;45407;-84
2022/03/14 06:13:15;;;;;;;;;13.50;9.75;;;;;5.02;100.00;102091.53;5088143;27;45364;-83
2022/03/14 06:15:41;;;;;;;;;9.75;8.00;;;;;5.02;100.00;102098.56;5091294;27;45149;-84
2022/03/14 06:18:07;;;;;;;;;13.25;8.75;;;;;5.03;100.00;102095.91;5086259;27;44743;-84
2022/03/14 06:20:34;;;;;;;;;12.25;6.00;;;;;5.04;100.00;102102.03;5082912;27;45229;-83
2022/03/14 06:23:00;;;;;;;;;10.25;9.00;;;;;5.06;100.00;102100.22;5085721;27;44746;-85
2022/03/14 06:25:25;;;;;;;;;15.25;9.50;;;;;5.08;100.00;102106.34;5079181;27;45505;-87
2022/03/14 06:27:51;;;;;;;;;15.50;9.75;;;;;5.12;100.00;102107.97;5078447;27;45449;-86
2022/03/14 06:30:16;;;;;;;;;14.75;9.00;;;;;5.19;100.00;102117.50;5076936;27;45434;-83
2022/03/14 06:32:43;;;;;;;;;11.67;9.33;;;;;5.26;100.00;102128.75;5078114;27;45543;-85
2022/03/14 06:35:15;;;;;;;;;10.33;10.00;;;;;5.31;100.00;102140.06;5078571;28;46292;-84
2022/03/14 06:37:42;;;;;;;;;15.50;14.50;;;;;5.36;100.00;102146.09;5079183;27;45338;-87
2022/03/14 06:40:08;;;;;;;;;8.00;6.67;;;;;5.41;100.00;102147.75;5080104;27;45434;-86
2022/03/14 06:42:41;;;;;;;;;12.00;9.00;;;;;5.46;100.00;102152.00;5089056;27;44804;-86
2022/03/14 06:45:08;;;;;;;;;9.75;9.00;;;;;5.56;100.00;102170.25;5083701;27;45291;-83
2022/03/14 06:47:34;;;;;;;;;10.75;8.50;;;;;5.65;100.00;102164.72;5081863;27;45548;-85
2022/03/14 06:49:59;;;;;;;;;12.50;10.25;;;;;5.73;100.00;102169.84;5080850;27;45446;-82
2022/03/14 06:52:25;;;;;;;;;10.50;8.00;;;;;5.83;100.00;102176.63;5063044;27;45258;-83
2022/03/14 06:54:50;;;;;;;;;13.00;11.25;;;;;5.92;100.00;102181.72;5101699;27;44901;-83
2022/03/14 06:57:15;;;;;;;;;13.00;9.50;;;;;6.03;100.00;102197.25;5105521;27;44826;-84
2022/03/14 06:59:41;;;;;;;;;11.00;10.50;;;;;6.13;100.00;102203.19;5109887;27;45316;-85
2022/03/14 07:02:07;;;;;;;;;17.25;12.00;;;;;6.24;100.00;102197.63;5106255;27;44799;-84
2022/03/14 07:04:34;;;;;;;;;10.75;10.75;;;;;6.34;100.00;102204.44;5109994;27;46787;-84
2022/03/14 07:07:02;;;;;;;;;14.50;11.50;;;;;6.40;100.00;102202.50;5110143;27;44733;-85
2022/03/14 07:09:28;;;;;;;;;11.50;9.00;;;;;6.50;100.00;102202.25;5106355;27;44736;-84
2022/03/14 07:11:54;;;;;;;;;11.50;10.25;;;;;6.55;100.00;102195.94;5105234;27;44815;-85
2022/03/14 07:14:20;;;;;;;;;12.25;11.50;;;;;6.63;100.00;102204.53;5102624;27;45782;-85
2022/03/14 07:16:46;;;;;;;;;15.33;13.33;;;;;6.71;100.00;102206.94;5108951;27;44846;-86
2022/03/14 07:19:12;;;;;;;;;16.00;12.50;;;;;6.81;100.00;102219.00;5109033;27;45409;-84
2022/03/14 07:21:38;;;;;;;;;14.25;13.00;;;;;6.89;100.00;102217.00;5107296;27;45386;-86
2022/03/14 07:24:04;;;;;;;;;18.33;11.00;;;;;7.00;100.00;102226.41;5118119;27;46728;-85
2022/03/14 07:26:29;;;;;;;;;11.25;10.25;;;;;7.08;100.00;102219.13;5102168;27;44774;-85
2022/03/14 07:28:54;;;;;;;;;14.75;11.75;;;;;7.20;100.00;102221.41;5101116;27;45463;-84
2022/03/14 07:31:21;;;;;;;;;13.50;11.75;;;;;7.36;100.00;102230.66;5103267;27;44851;-86
2022/03/14 07:33:48;;;;;;;;;16.00;11.25;;;;;7.49;100.00;102225.84;5105723;27;45375;-85
2022/03/14 07:36:14;;;;;;;;;13.50;13.50;;;;;7.63;100.00;102234.22;5111314;27;45321;-85
2022/03/14 07:38:39;;;;;;;;;16.50;12.75;;;;;7.77;100.00;102230.28;5109323;27;44787;-83
2022/03/14 07:41:05;;;;;;;;;14.00;12.50;;;;;7.85;100.00;102233.56;5105626;27;44924;-85
2022/03/14 07:43:30;;;;;;;;;11.25;10.75;;;;;7.82;100.00;102239.81;5106863;27;45205;-85
2022/03/14 07:45:56;;;;;;;;;10.75;10.75;;;;;7.74;100.00;102249.78;5102178;27;45356;-85
2022/03/14 07:48:22;;;;;;;;;7.25;7.25;;;;;7.66;100.00;102257.09;5103271;27;44591;-87
2022/03/14 07:50:48;;;;;;;;;5.25;4.00;;;;;7.60;100.00;102262.56;5104454;27;45157;-86
2022/03/14 07:53:14;;;;;;;;;12.50;11.75;;;;;7.48;100.00;102269.06;5104918;27;45287;-85
2022/03/14 07:55:39;;;;;;;;;13.50;11.50;;;;;7.40;100.00;102273.72;5108428;27;44757;-86
2022/03/14 07:58:05;;;;;;;;;12.75;12.75;;;;;7.35;100.00;102278.25;5108912;27;45159;-85
2022/03/14 08:00:30;;;;;;;;;11.50;11.00;;;;;7.33;100.00;102285.38;5101673;27;45068;-85
2022/03/14 08:02:55;;;;;;;;;16.25;12.25;;;;;7.39;100.00;102283.41;5102897;27;45023;-85
2022/03/14 08:05:25;;;;;;;;;13.50;13.50;;;;;7.50;100.00;102290.19;5101622;27;45331;-85
2022/03/14 08:07:52;;;;;;;;;12.50;12.50;;;;;7.66;100.00;102286.19;5101523;27;45460;-86
2022/03/14 08:10:18;;;;;;;;;13.00;8.00;;;;;7.85;100.00;102286.50;5101735;27;44817;-84
2022/03/14 08:12:49;;;;;;;;;11.00;8.00;;;;;8.05;100.00;102280.56;5103122;27;45535;-87
2022/03/14 08:15:33;;;;;;;;;10.75;10.75;;;;;8.27;100.00;102288.69;5108441;27;44782;-85
2022/03/14 08:18:00;;;;;;;;;15.00;11.75;;;;;8.42;100.00;102275.00;5106384;27;44709;-86
2022/03/14 08:20:27;;;;;;;;;7.00;7.00;;;;;8.54;100.00;102269.28;5112581;27;45223;-87
2022/03/14 08:22:54;;;;;;;;;9.25;9.00;;;;;8.65;100.00;102277.72;5113670;27;45421;-82
2022/03/14 08:25:21;;;;;;;;;11.00;9.75;;;;;8.75;100.00;102278.25;5111008;27;45369;-83
2022/03/14 08:27:46;;;;;;;;;13.25;11.50;;;;;8.83;100.00;102281.53;5104108;27;45440;-83
2022/03/14 08:30:12;;;;;;;;;5.00;5.00;;;;;8.93;100.00;102297.97;5103145;27;44807;-86
2022/03/14 08:32:39;;;;;;;;;10.50;9.00;;;;;9.05;100.00;102288.72;5104527;27;45444;-86
2022/03/14 08:35:09;;;;;;;;;9.75;9.75;;;;;9.13;100.00;102299.91;5106121;27;44789;-88
2022/03/14 08:37:40;;;;;;;;;17.75;12.50;;;;;9.23;100.00;102296.91;5108872;27;45422;-86
2022/03/14 08:40:09;;;;;;;;;13.50;11.25;;;;;9.30;100.00;102299.31;5109759;27;44880;-86
2022/03/14 08:42:38;;;;;;;;;10.00;10.00;;;;;9.40;100.00;102298.06;5107514;27;45244;-86
2022/03/14 08:45:05;;;;;;;;;16.00;12.25;;;;;9.48;100.00;102294.19;5107706;27;44790;-88
2022/03/14 08:47:31;;;;;;;;;9.50;9.50;;;;;9.47;100.00;102297.75;5105680;27;44815;-88
2022/03/14 08:49:57;;;;;;;;;11.00;9.50;;;;;9.59;100.00;102299.09;5111591;27;44806;-86
2022/03/14 08:52:22;;;;;;;;;12.00;9.75;;;;;9.72;100.00;102305.69;5109348;27;45334;-84
2022/03/14 08:54:47;;;;;;;;;18.50;12.25;;;;;9.82;100.00;102306.19;5056308;27;1396015;-84
2022/03/14 08:57:16;;;;;;;;;11.75;11.50;;;;;9.92;100.00;102312.88;5103954;27;45195;-86
2022/03/14 08:59:43;;;;;;;;;15.25;10.75;;;;;9.97;100.00;102304.72;5103234;27;45612;-86
2022/03/14 09:02:09;;;;;;;;;11.50;10.25;;;;;10.02;100.00;102314.22;5102380;27;45536;-86
2022/03/14 09:04:35;;;;;;;;;11.80;9.60;;;;;10.11;100.00;102309.50;5100890;27;44753;-86
2022/03/14 09:07:00;;;;;;;;;15.50;15.00;;;;;10.21;100.00;102313.50;5102306;27;45377;-87
2022/03/14 09:09:26;;;;;;;;;11.50;11.50;;;;;10.36;100.00;102326.19;5101102;27;45208;-83
2022/03/14 09:11:51;;;;;;;;;13.75;10.00;;;;;10.44;100.00;102324.09;5100262;27;45928;-87
2022/03/14 09:14:18;;;;;;;;;10.00;9.00;;;;;10.51;100.00;102320.25;5101968;27;45249;-86
2022/03/14 09:16:44;;;;;;;;;16.25;12.50;;;;;10.58;100.00;102317.34;5102097;27;45356;-86
2022/03/14 09:19:09;;;;;;;;;15.50;11.00;;;;;10.67;100.00;102317.81;5101692;27;44836;-88
2022/03/14 09:21:35;;;;;;;;;13.25;13.00;;;;;10.75;100.00;102315.72;5105994;27;45437;-87
2022/03/14 09:24:01;;;;;;;;;13.25;12.25;;;;;10.83;100.00;102331.34;5105415;27;45312;-85
2022/03/14 09:26:26;;;;;;;;;21.75;18.75;;;;;10.92;100.00;102327.41;5109981;27;45365;-86
2022/03/14 09:28:52;;;;;;;;;13.50;13.00;;;;;10.98;100.00;102329.81;5110416;27;45212;-85
2022/03/14 09:31:17;;;;;;;;;13.25;6.50;;;;;11.10;100.00;102331.94;5083452;27;45123;-87
2022/03/14 09:33:43;;;;;;;;;13.50;9.00;;;;;11.17;100.00;102338.75;5063305;28;45290;-87
2022/03/14 09:36:09;;;;;;;;;9.75;8.00;;;;;11.19;100.00;102336.88;5080488;27;45240;-85
2022/03/14 09:38:35;;;;;;;;;9.75;8.75;;;;;11.25;100.00;102333.06;5075303;27;44818;-86
2022/03/14 09:41:03;;;;;;;;;13.50;8.25;;;;;11.28;100.00;102339.13;5061791;27;45433;-87
2022/03/14 09:43:30;;;;;;;;;12.80;9.60;;;;;11.39;100.00;102327.13;5063051;28;44712;-87
2022/03/14 09:45:59;;;;;;;;;13.20;10.40;;;;;11.49;100.00;102333.75;5061531;28;44794;-86
2022/03/14 09:48:25;;;;;;;;;11.75;10.50;;;;;11.50;100.00;102338.16;5062780;28;45224;-85
2022/03/14 09:50:52;;;;;;;;;11.25;9.75;;;;;11.53;100.00;102338.03;5079983;27;45301;-85
2022/03/14 09:53:18;;;;;;;;;15.00;11.00;;;;;11.59;100.00;102340.41;5080635;28;44835;-86
2022/03/14 09:55:46;;;;;;;;;10.50;10.00;;;;;11.68;100.00;102339.97;5081064;27;44839;-84
2022/03/14 09:58:20;;;;;;;;;11.25;10.00;;;;;11.73;100.00;102337.09;5082306;27;45504;-84
2022/03/14 10:00:47;;;;;;;;;12.00;12.00;;;;;11.80;100.00;102344.75;5075001;27;45410;-86
2022/03/14 10:03:14;;;;;;;;;10.20;8.60;;;;;11.85;100.00;102333.94;5063114;28;44675;-86
2022/03/14 10:05:40;;;;;;;;;11.75;11.75;;;;;11.81;100.00;102337.63;5067827;28;45237;-84
2022/03/14 10:08:07;;;;;;;;;11.00;9.75;;;;;11.86;100.00;102340.97;5069684;27;44828;-87
2022/03/14 10:10:33;;;;;;;;;14.20;13.40;;;;;11.91;100.00;102346.94;5068905;28;45092;-87
2022/03/14 10:13:02;;;;;;;;;9.20;7.00;;;;;11.97;100.00;102341.31;5062160;28;45268;-88
2022/03/14 10:15:27;;;;;;;;;8.80;7.00;;;;;12.04;100.00;102342.78;5061246;28;45420;-84
2022/03/14 10:17:54;;;;;;;;;12.00;12.00;;;;;12.14;100.00;102331.69;5063470;27;45288;-83
2022/03/14 10:20:21;;;;;;;;;9.40;9.40;;;;;12.21;100.00;102336.63;5063526;28;45489;-84
2022/03/14 10:22:48;;;;;;;;;28.25;22.50;;;;;12.26;100.00;102331.94;5067520;28;44776;-86
2022/03/14 10:25:16;;;;;;;;;12.00;9.20;;;;;12.37;100.00;102342.06;5065328;27;45281;-84
2022/03/14 10:27:45;;;;;;;;;10.00;10.00;;;;;12.46;100.00;102348.75;5067305;28;44868;-86
2022/03/14 10:30:29;;;;;;;;;10.40;8.80;;;;;12.51;100.00;102357.41;5063074;28;45267;-86
2022/03/14 10:33:12;;;;;;;;;12.20;9.40;;;;;12.61;100.00;102350.66;5059758;28;45288;-84
2022/03/14 10:35:40;;;;;;;;;10.60;8.20;;;;;12.64;100.00;102349.66;5060242;28;45401;-86
2022/03/14 10:38:08;;;;;;;;;13.00;10.00;;;;;12.71;100.00;102353.75;5059783;28;44742;-84
2022/03/14 10:40:37;;;;;;;;;14.60;8.80;;;;;12.88;100.00;102352.91;5059015;28;45447;-85
2022/03/14 10:43:08;;;;;;;;;14.00;10.00;;;;;12.95;100.00;102355.16;5061943;27;45390;-83
2022/03/14 10:45:34;;;;;;;;;9.20;8.60;;;;;12.99;100.00;102351.41;5070561;27;45353;-85
2022/03/14 10:48:02;;;;;;;;;7.50;7.50;;;;;13.07;100.00;102343.88;5065699;28;45597;-84
2022/03/14 10:50:29;;;;;;;;;12.40;9.20;;;;;13.17;100.00;102340.75;5060770;28;45524;-85
2022/03/14 10:53:17;;;;;;;;;7.60;7.60;;;;;13.26;100.00;102341.16;5062495;27;44851;-85
2022/03/14 10:55:47;;;;;;;;;10.40;6.60;;;;;13.34;100.00;102338.94;5076015;27;44760;-85
2022/03/14 10:58:19;;;;;;;;;8.00;7.00;;;;;13.45;100.00;102340.19;5078115;27;44859;-85
2022/03/14 11:00:45;;;;;;;;;5.60;5.60;;;;;13.51;100.00;102340.72;5062857;27;45070;-86
2022/03/14 11:03:11;;;;;;;;;7.60;6.00;;;;;13.56;100.00;102341.31;5061083;28;44895;-84
2022/03/14 11:05:45;;;;;;;;;13.75;10.50;;;;;13.65;100.00;102331.09;5061096;28;45365;-86
2022/03/14 11:08:42;;;;;;;;;10.50;9.25;;;;;13.73;100.00;102336.88;5060357;28;44809;-83
2022/03/14 11:11:10;;;;;;;;;9.60;7.40;;;;;13.80;100.00;102332.94;5057159;28;45469;-83
2022/03/14 11:13:45;;;;;;;;;6.40;4.60;;;;;13.74;100.00;102344.81;5058923;28;45322;-84
2022/03/14 11:16:19;;;;;;;;;8.00;5.00;;;;;13.92;100.00;102344.72;5056455;28;45368;-86